Time;durP1;ratioP1;P1;durP2;ratioP2;P2;SDS_P1;SDS_P2;PMS_P1;PMS_P2;Temp;Humidity;BMP_temperature;BMP_pressure;BME280_temperature;BME280_humidity;BME280_pressure;Samples;Min_cycle;Max_cycle;Signal;HPM_P1;HPM_P2
2022/11/02 00:02:02;;;;;;;77.43;53.75;;;18.20;77.10;;;;;;4949952;28;93318;-51
2022/11/02 00:04:28;;;;;;;77.13;53.97;;;18.20;77.00;;;;;;4943622;28;89994;-51
2022/11/02 00:06:56;;;;;;;78.80;53.95;;;18.20;77.20;;;;;;4945332;28;92776;-50
2022/11/02 00:09:22;;;;;;;77.43;55.10;;;18.10;77.00;;;;;;4945496;28;90860;-51
2022/11/02 00:11:47;;;;;;;79.70;53.92;;;18.10;77.20;;;;;;4945110;28;90586;-46
2022/11/02 00:14:13;;;;;;;78.15;53.92;;;18.10;77.30;;;;;;4945766;28;90683;-49
2022/11/02 00:16:39;;;;;;;78.07;54.20;;;18.10;77.10;;;;;;4945884;28;91079;-49
2022/11/02 00:19:06;;;;;;;77.85;54.10;;;18.10;77.20;;;;;;4948506;28;92314;-50
2022/11/02 00:21:33;;;;;;;78.63;53.88;;;18.10;77.40;;;;;;4951540;28;90668;-49
2022/11/02 00:24:00;;;;;;;78.18;54.20;;;18.10;77.20;;;;;;4946785;28;90152;-50
2022/11/02 00:26:27;;;;;;;78.53;54.35;;;18.10;77.30;;;;;;4944135;28;90120;-48
2022/11/02 00:28:54;;;;;;;77.70;53.78;;;18.10;77.40;;;;;;4949638;28;89853;-49
2022/11/02 00:31:20;;;;;;;77.15;54.25;;;18.10;77.30;;;;;;4948468;28;91635;-49
2022/11/02 00:33:45;;;;;;;77.65;53.83;;;18.10;77.30;;;;;;4945258;28;89688;-47
2022/11/02 00:36:11;;;;;;;77.00;54.72;;;18.10;77.30;;;;;;4940571;28;91229;-53
2022/11/02 00:38:37;;;;;;;76.45;53.72;;;18.10;77.50;;;;;;4942651;28;90854;-49
2022/11/02 00:41:03;;;;;;;78.68;53.95;;;18.10;77.40;;;;;;4942018;28;92443;-51
2022/11/02 00:43:29;;;;;;;78.00;53.97;;;18.10;77.40;;;;;;4949986;28;90580;-49
2022/11/02 00:45:55;;;;;;;76.47;53.53;;;18.10;77.40;;;;;;4944954;28;93512;-48
2022/11/02 00:48:21;;;;;;;76.47;53.72;;;18.00;77.40;;;;;;4945760;28;91059;-48
2022/11/02 00:50:46;;;;;;;76.13;53.10;;;18.00;77.30;;;;;;4939677;28;89866;-51
2022/11/02 00:53:12;;;;;;;75.90;53.63;;;18.00;77.20;;;;;;4938976;28;91656;-48
2022/11/02 00:55:37;;;;;;;75.30;53.25;;;18.00;77.40;;;;;;4942441;28;90651;-47
2022/11/02 00:58:03;;;;;;;75.80;53.17;;;18.00;77.40;;;;;;4951564;28;89295;-50
2022/11/02 01:00:29;;;;;;;76.00;53.10;;;18.00;77.30;;;;;;4940890;28;92115;-48
2022/11/02 01:02:58;;;;;;;77.18;53.53;;;18.00;77.50;;;;;;4937905;28;93092;-48
2022/11/02 01:05:23;;;;;;;76.40;53.25;;;18.00;77.60;;;;;;4942483;28;91676;-49
2022/11/02 01:07:49;;;;;;;75.93;53.22;;;18.00;77.30;;;;;;4951702;28;90567;-48
2022/11/02 01:10:14;;;;;;;76.63;53.70;;;18.00;77.60;;;;;;4951784;28;93032;-49
2022/11/02 01:12:40;;;;;;;75.30;53.33;;;18.00;77.40;;;;;;4949928;28;89971;-47
2022/11/02 01:15:07;;;;;;;76.03;52.67;;;18.00;77.70;;;;;;4952634;28;91136;-49
2022/11/02 01:17:33;;;;;;;76.47;53.75;;;18.00;77.40;;;;;;4954607;28;93279;-50
2022/11/02 01:19:59;;;;;;;76.63;53.08;;;18.00;77.50;;;;;;4954454;28;90138;-47
2022/11/02 01:22:24;;;;;;;74.65;52.53;;;17.90;77.50;;;;;;4946085;28;89263;-49
2022/11/02 01:24:50;;;;;;;76.97;53.33;;;18.00;77.40;;;;;;4947202;28;91767;-50
2022/11/02 01:27:15;;;;;;;77.78;52.92;;;17.90;77.50;;;;;;4943569;28;91914;-48
2022/11/02 01:29:41;;;;;;;77.93;53.30;;;18.00;77.50;;;;;;4947390;28;92249;-47
2022/11/02 01:32:07;;;;;;;75.45;51.95;;;17.90;77.50;;;;;;4949165;28;90275;-47
2022/11/02 01:34:32;;;;;;;75.05;52.58;;;17.90;77.50;;;;;;4950793;28;89751;-53
2022/11/02 01:36:58;;;;;;;74.35;52.58;;;17.90;77.50;;;;;;4942288;28;91070;-47
2022/11/02 01:39:23;;;;;;;76.18;52.65;;;17.90;77.50;;;;;;4960127;28;89478;-49
2022/11/02 01:41:52;;;;;;;75.93;52.78;;;17.90;77.60;;;;;;4954174;28;93204;-48
2022/11/02 01:44:34;;;;;;;75.75;52.40;;;17.90;77.70;;;;;;4947470;28;89802;-51
2022/11/02 01:47:40;;;;;;;76.15;52.80;;;17.90;77.50;;;;;;4950110;28;92839;-47
2022/11/02 01:50:20;;;;;;;76.22;53.03;;;17.80;77.40;;;;;;4949589;28;90406;-49
2022/11/02 01:52:46;;;;;;;74.47;52.58;;;17.90;77.60;;;;;;4956614;28;92178;-51
2022/11/02 01:55:20;;;;;;;75.43;52.38;;;17.90;77.60;;;;;;4950647;28;91117;-51
2022/11/02 01:57:55;;;;;;;75.70;52.72;;;17.90;77.50;;;;;;4948351;28;90925;-50
2022/11/02 02:00:21;;;;;;;75.72;52.08;;;17.80;77.60;;;;;;4946703;28;91407;-51
2022/11/02 02:03:07;;;;;;;75.75;52.70;;;17.80;77.70;;;;;;4953605;28;90051;-49
2022/11/02 02:05:43;;;;;;;75.22;52.42;;;17.80;77.70;;;;;;4949211;28;90206;-51
2022/11/02 02:08:12;;;;;;;74.93;52.40;;;17.80;77.60;;;;;;4946410;28;90079;-47
2022/11/02 02:10:38;;;;;;;75.63;52.13;;;17.80;77.60;;;;;;4954876;28;89976;-50
2022/11/02 02:13:05;;;;;;;74.97;52.35;;;17.80;77.70;;;;;;4947083;28;94394;-49
2022/11/02 02:16:00;;;;;;;76.10;52.38;;;17.80;77.60;;;;;;4954001;28;90351;-48
2022/11/02 02:18:49;;;;;;;74.68;52.20;;;17.80;77.70;;;;;;4945493;28;90224;-48
2022/11/02 02:21:23;;;;;;;75.28;52.55;;;17.70;77.70;;;;;;4951188;28;92090;-49
2022/11/02 02:24:16;;;;;;;75.25;52.45;;;17.80;77.70;;;;;;4944217;28;90832;-47
2022/11/02 02:27:03;;;;;;;75.28;51.88;;;17.70;77.70;;;;;;4956314;28;90702;-47
2022/11/02 02:30:04;;;;;;;75.15;52.25;;;17.80;77.70;;;;;;4948830;28;90690;-48
2022/11/02 02:33:05;;;;;;;72.80;51.75;;;17.70;77.60;;;;;;4966873;28;89898;-48
2022/11/02 02:35:53;;;;;;;73.95;51.30;;;17.70;77.80;;;;;;4955017;28;90062;-48
2022/11/02 02:38:54;;;;;;;76.28;52.20;;;17.70;77.60;;;;;;4943663;28;90316;-49
2022/11/02 02:41:38;;;;;;;74.50;51.85;;;17.70;77.80;;;;;;4947797;28;89394;-51
2022/11/02 02:44:09;;;;;;;75.60;51.88;;;17.70;77.70;;;;;;4949538;28;91504;-49
2022/11/02 02:46:51;;;;;;;74.73;51.90;;;17.70;77.70;;;;;;4949473;28;90371;-50
2022/11/02 02:49:22;;;;;;;73.75;51.78;;;17.70;78.00;;;;;;4951063;28;91088;-50
2022/11/02 02:51:48;;;;;;;76.77;52.10;;;17.70;77.80;;;;;;4957053;28;91416;-52
2022/11/02 02:54:24;;;;;;;75.80;52.33;;;17.70;78.50;;;;;;4942997;28;90317;-48
2022/11/02 02:56:54;;;;;;;74.72;52.10;;;17.70;77.60;;;;;;4952929;28;89732;-48
2022/11/02 02:59:28;;;;;;;76.97;52.22;;;17.70;77.70;;;;;;4942361;28;90228;-49
2022/11/02 03:01:55;;;;;;;75.20;52.00;;;17.70;77.80;;;;;;4944474;28;91419;-52
2022/11/02 03:04:21;;;;;;;75.97;52.42;;;17.70;77.70;;;;;;4953746;28;90304;-46
2022/11/02 03:06:53;;;;;;;74.20;52.67;;;17.70;77.50;;;;;;4958013;28;90304;-48
2022/11/02 03:09:32;;;;;;;74.18;52.03;;;17.70;77.70;;;;;;4949020;28;90523;-50
2022/11/02 03:12:21;;;;;;;74.80;52.65;;;17.60;77.80;;;;;;4951517;28;90166;-51
2022/11/02 03:14:59;;;;;;;74.28;52.05;;;17.60;77.80;;;;;;4946038;28;92468;-49
2022/11/02 03:17:49;;;;;;;74.35;52.00;;;17.60;77.70;;;;;;4944044;28;95030;-47
2022/11/02 03:20:40;;;;;;;74.68;52.13;;;17.60;77.70;;;;;;4948836;28;90162;-47
2022/11/02 03:23:24;;;;;;;75.50;51.72;;;17.60;77.70;;;;;;4949587;28;91052;-46
2022/11/02 03:26:02;;;;;;;74.15;51.85;;;17.70;77.70;;;;;;4943566;28;89741;-50
2022/11/02 03:28:41;;;;;;;78.45;51.90;;;17.60;77.60;;;;;;4948330;28;92534;-50
2022/11/02 03:31:12;;;;;;;74.10;52.28;;;17.60;77.60;;;;;;4936160;28;94095;-48
2022/11/02 03:33:46;;;;;;;75.72;52.08;;;17.60;77.60;;;;;;4942856;28;89155;-49
2022/11/02 03:36:17;;;;;;;72.93;51.80;;;17.60;77.60;;;;;;4948227;28;89714;-50
2022/11/02 03:38:58;;;;;;;75.57;52.38;;;17.60;77.80;;;;;;4946994;28;90019;-47
2022/11/02 03:41:25;;;;;;;73.77;51.90;;;17.60;77.80;;;;;;4959539;28;93243;-50
2022/11/02 03:43:58;;;;;;;75.03;51.45;;;17.60;77.50;;;;;;4949547;28;90167;-49
2022/11/02 03:46:25;;;;;;;74.13;51.78;;;17.60;77.60;;;;;;4958349;28;90033;-48
2022/11/02 03:48:53;;;;;;;73.53;51.88;;;17.60;78.50;;;;;;4947448;28;89877;-50
2022/11/02 03:51:22;;;;;;;75.25;51.88;;;17.60;77.80;;;;;;4951339;28;90239;-51
2022/11/02 03:53:53;;;;;;;74.78;51.60;;;17.60;77.60;;;;;;4951907;28;90413;-48
2022/11/02 03:56:25;;;;;;;75.47;52.05;;;17.60;77.70;;;;;;4950135;28;89717;-47
2022/11/02 03:58:50;;;;;;;;;;;17.60;77.70;;;;;;4950879;28;90073;-49
2022/11/02 04:01:18;;;;;;;73.65;51.63;;;17.60;77.60;;;;;;4944182;28;90327;-48
2022/11/02 04:03:46;;;;;;;74.22;51.60;;;17.60;77.70;;;;;;4943275;28;90391;-50
2022/11/02 04:06:12;;;;;;;74.40;51.55;;;17.60;77.60;;;;;;4945022;28;91239;-48
2022/11/02 04:08:46;;;;;;;73.15;51.60;;;17.60;77.80;;;;;;4945771;28;95157;-49
2022/11/02 04:16:42;;;;;;;74.18;51.92;;;17.60;77.80;;;;;;4946539;28;90446;-48
2022/11/02 04:19:26;;;;;;;74.10;51.30;;;17.60;77.60;;;;;;4954006;28;90741;-47
2022/11/02 04:27:20;;;;;;;74.45;51.88;;;17.50;77.80;;;;;;4953210;28;90408;-48
2022/11/02 04:29:46;;;;;;;73.13;51.60;;;17.50;78.50;;;;;;4951915;28;90358;-47
2022/11/02 04:32:11;;;;;;;74.70;51.67;;;17.60;77.90;;;;;;4941500;28;92106;-49
2022/11/02 04:34:37;;;;;;;74.07;51.33;;;17.50;77.80;;;;;;4949088;28;92175;-49
2022/11/02 04:38:39;;;;;;;73.32;51.92;;;17.50;77.70;;;;;;4948756;28;92315;-49
2022/11/02 04:39:48;;;;;;;74.10;52.00;;;17.50;77.80;;;;;;4939353;28;92403;-47
2022/11/02 04:42:14;;;;;;;72.57;51.63;;;17.50;77.80;;;;;;4955327;28;91751;-46
2022/11/02 04:44:39;;;;;;;73.93;51.80;;;17.50;78.00;;;;;;4947792;28;90145;-52
2022/11/02 04:47:05;;;;;;;73.78;51.53;;;17.50;77.80;;;;;;4952063;28;89816;-46
2022/11/02 04:49:31;;;;;;;73.63;51.65;;;17.40;77.90;;;;;;4948050;28;89190;-47
2022/11/02 04:51:56;;;;;;;74.00;51.88;;;17.40;78.00;;;;;;4951584;28;90994;-51
2022/11/02 04:54:22;;;;;;;73.13;51.63;;;17.40;77.90;;;;;;4940192;28;90852;-47
2022/11/02 04:56:48;;;;;;;76.03;51.75;;;17.40;77.90;;;;;;4949422;28;90883;-51
2022/11/02 04:59:13;;;;;;;73.70;51.35;;;17.40;77.90;;;;;;4950139;28;91489;-47
2022/11/02 05:01:39;;;;;;;73.80;51.55;;;17.40;78.10;;;;;;4950629;28;90971;-48
2022/11/02 05:04:04;;;;;;;74.50;52.10;;;17.40;77.90;;;;;;4951461;28;89838;-46
2022/11/02 05:06:30;;;;;;;73.93;51.58;;;17.40;78.00;;;;;;4953893;28;90773;-48
2022/11/02 05:08:56;;;;;;;72.55;51.35;;;17.40;77.90;;;;;;4947582;28;91720;-50
2022/11/02 05:11:21;;;;;;;75.28;52.03;;;17.40;77.90;;;;;;4949167;28;90186;-47
2022/11/02 05:13:47;;;;;;;73.85;51.60;;;17.40;77.80;;;;;;4948496;28;90444;-49
2022/11/02 05:16:15;;;;;;;75.47;53.55;;;17.40;77.90;;;;;;4942991;28;91009;-49
2022/11/02 05:18:41;;;;;;;74.13;51.58;;;17.40;77.90;;;;;;4951492;28;90091;-47
2022/11/02 05:21:08;;;;;;;75.47;51.85;;;17.40;77.90;;;;;;4953261;28;90802;-51
2022/11/02 05:23:34;;;;;;;73.45;51.38;;;17.30;77.80;;;;;;4957524;28;95073;-48
2022/11/02 05:26:02;;;;;;;75.63;51.72;;;17.40;78.10;;;;;;4948659;28;90211;-49
2022/11/02 05:28:29;;;;;;;73.28;51.70;;;17.30;77.90;;;;;;4948394;28;91067;-50
2022/11/02 05:30:58;;;;;;;75.05;51.80;;;17.40;78.10;;;;;;4942621;28;90917;-47
2022/11/02 05:33:23;;;;;;;74.82;51.83;;;17.40;78.10;;;;;;4953855;28;93258;-50
2022/11/02 05:35:49;;;;;;;73.60;51.38;;;17.40;78.10;;;;;;4953393;28;91085;-49
2022/11/02 05:38:15;;;;;;;72.53;51.28;;;17.40;78.10;;;;;;4963571;28;88826;-49
2022/11/02 05:40:40;;;;;;;73.63;51.60;;;17.40;77.90;;;;;;4948767;28;90270;-47
2022/11/02 05:43:07;;;;;;;73.55;51.47;;;17.30;78.00;;;;;;4957159;28;91827;-47
2022/11/02 05:45:34;;;;;;;75.72;51.72;;;17.30;77.80;;;;;;4946440;28;90857;-46
2022/11/02 05:48:01;;;;;;;73.85;51.63;;;17.30;78.00;;;;;;4953223;28;91907;-49
2022/11/02 05:50:27;;;;;;;72.88;51.58;;;17.30;78.10;;;;;;4951884;28;91066;-51
2022/11/02 05:52:53;;;;;;;72.97;51.53;;;17.30;78.10;;;;;;4949664;28;90072;-50
2022/11/02 05:55:19;;;;;;;75.30;51.30;;;17.30;78.10;;;;;;4953137;28;90806;-49
2022/11/02 05:57:53;;;;;;;73.00;51.30;;;17.30;78.00;;;;;;4949129;28;90903;-49
2022/11/02 06:00:20;;;;;;;74.07;51.55;;;17.30;78.00;;;;;;4947609;28;94136;-47
2022/11/02 06:02:47;;;;;;;73.55;51.47;;;17.30;77.90;;;;;;4953426;28;96048;-51
2022/11/02 06:05:13;;;;;;;74.13;51.17;;;17.30;77.90;;;;;;4949511;28;91137;-50
2022/11/02 06:07:39;;;;;;;74.00;51.17;;;17.30;78.00;;;;;;4952755;28;91172;-49
2022/11/02 06:10:06;;;;;;;74.65;51.53;;;17.30;77.90;;;;;;4955651;28;91182;-48
2022/11/02 06:12:31;;;;;;;73.63;51.08;;;17.30;77.90;;;;;;4940289;28;90041;-51
2022/11/02 06:14:57;;;;;;;74.03;51.05;;;17.30;78.00;;;;;;4949129;28;91270;-47
2022/11/02 06:17:23;;;;;;;72.78;51.65;;;17.20;78.10;;;;;;4955229;28;89898;-48
2022/11/02 06:19:48;;;;;;;74.15;51.45;;;17.20;78.10;;;;;;4957946;28;91637;-46
2022/11/02 06:22:14;;;;;;;74.93;51.63;;;17.20;78.00;;;;;;4944961;28;93561;-48
2022/11/02 06:24:39;;;;;;;75.95;51.85;;;17.20;78.10;;;;;;4944337;28;90294;-50
2022/11/02 06:27:05;;;;;;;74.10;51.33;;;17.20;78.20;;;;;;4950275;28;89721;-51
2022/11/02 06:29:31;;;;;;;73.55;51.35;;;17.20;78.10;;;;;;4946585;28;91287;-49
2022/11/02 06:31:56;;;;;;;73.57;51.33;;;17.20;78.20;;;;;;4940355;28;89882;-51
2022/11/02 06:34:22;;;;;;;73.10;51.72;;;17.20;78.10;;;;;;4952794;28;91040;-50
2022/11/02 06:36:48;;;;;;;75.38;51.47;;;17.20;78.10;;;;;;4947856;28;89943;-49
2022/11/02 06:39:13;;;;;;;74.97;51.20;;;17.20;78.10;;;;;;4949028;28;90291;-48
2022/11/02 06:41:39;;;;;;;74.15;51.35;;;17.20;78.10;;;;;;4944938;28;90215;-51
2022/11/02 06:44:05;;;;;;;74.65;51.17;;;17.20;78.10;;;;;;4957191;28;91209;-47
2022/11/02 06:46:31;;;;;;;76.22;51.65;;;17.20;78.10;;;;;;4955273;28;90745;-47
2022/11/02 06:48:57;;;;;;;75.28;51.58;;;17.20;78.00;;;;;;4948629;28;90783;-48
2022/11/02 06:51:23;;;;;;;74.72;51.17;;;17.20;78.10;;;;;;4941068;28;90114;-48
2022/11/02 06:53:49;;;;;;;74.30;51.67;;;17.20;78.20;;;;;;4947217;28;90607;-50
2022/11/02 06:56:15;;;;;;;77.45;51.70;;;17.20;78.30;;;;;;4951696;28;90818;-49
2022/11/02 06:58:40;;;;;;;74.13;51.03;;;17.10;78.00;;;;;;4944806;28;92279;-47
2022/11/02 07:01:07;;;;;;;75.72;51.58;;;17.20;78.20;;;;;;4941013;28;90335;-49
2022/11/02 07:03:32;;;;;;;73.22;51.20;;;17.20;78.10;;;;;;4951109;28;92021;-50
2022/11/02 07:05:58;;;;;;;73.30;51.50;;;17.20;78.10;;;;;;4957886;28;90017;-50
2022/11/02 07:08:26;;;;;;;76.43;51.78;;;17.20;78.10;;;;;;4937814;28;90818;-50
2022/11/02 07:10:52;;;;;;;74.93;51.50;;;17.20;77.80;;;;;;4939817;28;89596;-48
2022/11/02 07:13:18;;;;;;;75.65;51.75;;;17.20;78.00;;;;;;4949521;28;90414;-49
2022/11/02 07:15:43;;;;;;;77.65;51.85;;;17.10;77.90;;;;;;4940987;28;89587;-47
2022/11/02 07:18:09;;;;;;;74.57;51.22;;;17.20;78.00;;;;;;4949043;28;89849;-46
2022/11/02 07:20:35;;;;;;;75.00;51.45;;;17.20;77.70;;;;;;4948762;28;90767;-48
2022/11/02 07:23:02;;;;;;;75.07;51.95;;;17.20;77.80;;;;;;4939319;28;93970;-48
2022/11/02 07:25:30;;;;;;;74.88;51.40;;;17.10;77.80;;;;;;4942887;28;92032;-52
2022/11/02 07:27:58;;;;;;;74.13;51.55;;;17.10;77.80;;;;;;4943731;28;89743;-49
2022/11/02 07:30:24;;;;;;;74.15;51.42;;;17.20;77.90;;;;;;4953918;28;89849;-47
2022/11/02 07:32:50;;;;;;;77.03;51.63;;;17.20;77.90;;;;;;4949599;28;91071;-50
2022/11/02 07:35:16;;;;;;;74.05;51.33;;;17.20;77.70;;;;;;4948474;28;91721;-49
2022/11/02 07:37:42;;;;;;;73.47;51.40;;;17.20;77.90;;;;;;4944385;28;90329;-50
2022/11/02 07:40:09;;;;;;;73.55;51.50;;;17.20;77.80;;;;;;4948805;28;90226;-50
2022/11/02 07:42:35;;;;;;;77.38;51.63;;;17.20;77.80;;;;;;4916607;28;91706;-46
2022/11/02 07:45:01;;;;;;;74.75;51.60;;;17.30;77.90;;;;;;4941978;28;92094;-49
2022/11/02 07:47:27;;;;;;;74.65;51.80;;;17.40;77.60;;;;;;4936296;28;91608;-46
2022/11/02 07:49:52;;;;;;;85.25;52.22;;;17.50;77.50;;;;;;4931456;28;93146;-45
2022/11/02 07:52:18;;;;;;;76.72;51.90;;;17.60;77.50;;;;;;4948002;28;90582;-47
2022/11/02 07:54:43;;;;;;;74.95;51.53;;;17.60;77.20;;;;;;4945421;28;90063;-47
2022/11/02 07:57:09;;;;;;;77.88;51.97;;;17.70;77.40;;;;;;4932237;28;97703;-46
2022/11/02 07:59:35;;;;;;;75.57;51.70;;;17.70;77.50;;;;;;4936245;28;92483;-50
2022/11/02 08:02:01;;;;;;;77.38;51.33;;;17.80;77.50;;;;;;4943424;28;91079;-51
2022/11/02 08:04:27;;;;;;;78.43;52.00;;;17.80;77.50;;;;;;4933307;28;89757;-47
2022/11/02 08:06:53;;;;;;;77.13;51.97;;;17.80;77.40;;;;;;4940989;28;90524;-45
2022/11/02 08:09:18;;;;;;;73.93;51.85;;;17.90;77.30;;;;;;4953963;28;89949;-47
2022/11/02 08:11:44;;;;;;;77.63;51.53;;;17.90;77.30;;;;;;4943438;28;91708;-50
2022/11/02 08:14:10;;;;;;;76.25;51.83;;;17.90;77.30;;;;;;4946917;28;90494;-48
2022/11/02 08:16:35;;;;;;;76.95;52.10;;;17.90;77.20;;;;;;4938464;28;91349;-49
2022/11/02 08:19:01;;;;;;;77.47;51.95;;;18.00;77.10;;;;;;4946244;28;90185;-49
2022/11/02 08:21:27;;;;;;;75.93;51.67;;;18.00;76.90;;;;;;4945966;28;91694;-50
2022/11/02 08:23:54;;;;;;;80.38;51.92;;;18.00;76.90;;;;;;4943452;28;90108;-51
2022/11/02 08:26:19;;;;;;;73.75;51.28;;;18.00;76.80;;;;;;4954097;28;89714;-50
2022/11/02 08:28:45;;;;;;;81.65;51.28;;;18.00;76.80;;;;;;4946771;28;96201;-48
2022/11/02 08:31:16;;;;;;;76.72;51.92;;;18.10;76.60;;;;;;4950089;28;89906;-50
2022/11/02 08:33:43;;;;;;;75.72;51.92;;;18.10;76.50;;;;;;4945644;28;90375;-51
2022/11/02 08:36:09;;;;;;;79.07;51.95;;;18.10;76.20;;;;;;4940767;28;91489;-51
2022/11/02 08:38:35;;;;;;;76.50;51.38;;;18.00;75.90;;;;;;4948648;28;90833;-53
2022/11/02 08:41:01;;;;;;;77.10;51.80;;;18.00;76.20;;;;;;4941462;28;90078;-50
2022/11/02 08:43:26;;;;;;;76.80;51.60;;;18.00;76.20;;;;;;4937394;28;90191;-52
2022/11/02 08:45:56;;;;;;;77.30;51.45;;;18.00;76.30;;;;;;4944506;28;96281;-52
2022/11/02 08:48:22;;;;;;;75.93;51.58;;;18.00;76.10;;;;;;4942164;28;90285;-49
2022/11/02 08:50:48;;;;;;;77.35;51.45;;;18.00;76.10;;;;;;4952655;28;91152;-54
2022/11/02 08:53:13;;;;;;;74.75;51.42;;;18.00;76.20;;;;;;4942942;28;90371;-54
2022/11/02 08:55:39;;;;;;;76.50;51.78;;;18.00;76.00;;;;;;4950989;28;94612;-54
2022/11/02 08:58:05;;;;;;;74.45;51.28;;;18.00;76.00;;;;;;4942242;28;89798;-54
2022/11/02 09:00:33;;;;;;;75.40;51.45;;;18.00;76.00;;;;;;4942467;28;90803;-54
2022/11/02 09:03:06;;;;;;;76.03;51.80;;;18.00;75.90;;;;;;4938252;28;91708;-51
2022/11/02 09:05:38;;;;;;;77.03;51.63;;;18.10;76.20;;;;;;4946638;28;90350;-51
2022/11/02 09:08:06;;;;;;;79.78;51.90;;;18.10;76.20;;;;;;4941044;28;93765;-47
2022/11/02 09:10:34;;;;;;;77.03;51.88;;;18.20;76.30;;;;;;4941925;28;89780;-51
2022/11/02 09:13:02;;;;;;;78.78;52.05;;;18.30;76.30;;;;;;4940859;28;89652;-48
2022/11/02 09:15:29;;;;;;;78.75;52.35;;;18.30;76.40;;;;;;4949460;28;91360;-45
2022/11/02 09:17:55;;;;;;;81.30;51.75;;;18.30;75.70;;;;;;4947754;28;95861;-49
2022/11/02 09:20:21;;;;;;;76.43;51.70;;;18.40;76.10;;;;;;4943374;28;92810;-51
2022/11/02 09:22:48;;;;;;;82.57;52.35;;;18.40;76.10;;;;;;4944834;28;89955;-48
2022/11/02 09:25:15;;;;;;;75.50;52.00;;;18.40;76.30;;;;;;4945967;28;92548;-47
2022/11/02 09:27:41;;;;;;;77.28;51.75;;;18.50;76.50;;;;;;4941123;28;91689;-49
2022/11/02 09:30:08;;;;;;;78.00;52.05;;;18.50;76.60;;;;;;4945744;28;91943;-48
2022/11/02 09:32:35;;;;;;;78.28;51.88;;;18.50;76.60;;;;;;4944695;28;89564;-47
2022/11/02 09:35:06;;;;;;;77.88;52.08;;;18.60;76.80;;;;;;4949291;28;89626;-50
2022/11/02 09:37:31;;;;;;;76.13;52.22;;;18.60;76.70;;;;;;4940173;28;90935;-49
2022/11/02 09:39:57;;;;;;;77.57;52.35;;;18.70;76.80;;;;;;4947731;28;90143;-46
2022/11/02 09:42:31;;;;;;;75.13;51.78;;;18.70;76.80;;;;;;4950565;28;90677;-48
2022/11/02 09:45:04;;;;;;;74.50;51.78;;;18.70;76.90;;;;;;4947357;28;91164;-47
2022/11/02 09:47:34;;;;;;;78.55;51.80;;;18.80;77.10;;;;;;4942880;28;90858;-48
2022/11/02 09:50:01;;;;;;;75.75;52.08;;;18.80;76.90;;;;;;4938257;28;92316;-46
2022/11/02 09:52:33;;;;;;;78.40;52.80;;;18.80;76.90;;;;;;4944349;28;89651;-48
2022/11/02 09:55:02;;;;;;;78.30;52.17;;;18.80;76.90;;;;;;4946037;28;95872;-46
2022/11/02 09:57:33;;;;;;;77.10;52.45;;;18.80;76.90;;;;;;4937623;28;94451;-47
2022/11/02 09:59:59;;;;;;;77.30;51.92;;;18.80;76.40;;;;;;4940631;28;90385;-46
2022/11/02 10:02:34;;;;;;;80.00;53.28;;;18.80;76.00;;;;;;4943258;28;90669;-49
2022/11/02 10:05:09;;;;;;;78.03;52.47;;;18.90;75.60;;;;;;4946566;28;95818;-48
2022/11/02 10:07:56;;;;;;;79.18;52.88;;;18.90;75.20;;;;;;4951749;28;89117;-47
2022/11/02 10:10:22;;;;;;;79.38;52.63;;;18.80;74.50;;;;;;4949746;28;89534;-51
2022/11/02 10:13:40;;;;;;;80.07;52.50;;;18.90;74.30;;;;;;4946679;28;90510;-50
2022/11/02 10:16:09;;;;;;;80.53;52.70;;;18.90;73.70;;;;;;4946557;28;91753;-50
2022/11/02 10:18:35;;;;;;;80.88;52.70;;;18.90;73.60;;;;;;4948694;28;91346;-49
2022/11/02 10:21:09;;;;;;;81.72;52.60;;;18.90;73.50;;;;;;4944227;28;90040;-46
2022/11/02 10:23:40;;;;;;;81.93;52.50;;;18.90;73.30;;;;;;4939608;28;90094;-47
2022/11/02 10:26:13;;;;;;;77.57;52.47;;;19.00;73.00;;;;;;4940315;28;90867;-50
2022/11/02 10:28:42;;;;;;;81.97;52.97;;;19.00;72.70;;;;;;4940759;28;92738;-50
2022/11/02 10:31:29;;;;;;;80.97;53.35;;;19.00;72.50;;;;;;4943584;28;95828;-49
2022/11/02 10:33:58;;;;;;;80.78;53.50;;;19.00;72.20;;;;;;4943609;28;89572;-51
2022/11/02 10:36:35;;;;;;;80.45;52.83;;;19.10;72.00;;;;;;4942568;28;92126;-49
2022/11/02 10:39:06;;;;;;;79.15;52.90;;;19.10;71.60;;;;;;4945301;28;90061;-45
2022/11/02 10:41:51;;;;;;;80.93;53.20;;;19.10;71.10;;;;;;4937955;28;93857;-50
2022/11/02 10:45:00;;;;;;;82.80;53.47;;;19.20;70.90;;;;;;4939714;28;89788;-45
2022/11/02 10:47:43;;;;;;;87.55;53.60;;;19.20;71.00;;;;;;4938976;28;90407;-47
2022/11/02 10:50:40;;;;;;;84.35;53.60;;;19.20;71.00;;;;;;4939669;28;91489;-50
2022/11/02 10:53:12;;;;;;;87.63;54.00;;;19.20;71.00;;;;;;4941347;28;95561;-50
2022/11/02 10:55:56;;;;;;;88.95;53.92;;;19.20;70.90;;;;;;4947683;28;90000;-49
2022/11/02 10:58:25;;;;;;;85.03;53.80;;;19.20;70.90;;;;;;4949279;28;90275;-49
2022/11/02 11:01:07;;;;;;;91.47;54.45;;;19.20;70.60;;;;;;4947292;28;90451;-48
2022/11/02 11:03:33;;;;;;;87.88;54.60;;;19.20;70.50;;;;;;4943024;28;94402;-50
2022/11/02 11:06:03;;;;;;;86.97;53.72;;;19.20;70.80;;;;;;4938822;28;90500;-52
2022/11/02 11:08:37;;;;;;;90.97;54.42;;;19.20;70.60;;;;;;4942546;28;97093;-48
2022/11/02 11:11:11;;;;;;;84.57;54.65;;;19.20;70.60;;;;;;4942782;28;96484;-46
2022/11/02 11:13:39;;;;;;;88.32;54.75;;;19.20;70.40;;;;;;4943538;28;90150;-48
2022/11/02 11:16:05;;;;;;;90.70;54.58;;;19.20;71.30;;;;;;4940339;28;90037;-51
2022/11/02 11:18:31;;;;;;;92.38;54.53;;;19.20;70.60;;;;;;4940402;28;90469;-52
2022/11/02 11:20:58;;;;;;;90.47;53.95;;;19.20;70.60;;;;;;4943870;28;90625;-47
2022/11/02 11:23:25;;;;;;;88.53;54.25;;;19.20;70.40;;;;;;4940627;28;92691;-51
2022/11/02 11:25:59;;;;;;;92.68;54.25;;;19.20;70.30;;;;;;4939597;28;89151;-47
2022/11/02 11:28:26;;;;;;;87.07;54.40;;;19.20;70.00;;;;;;4941184;28;94557;-49
2022/11/02 11:31:11;;;;;;;88.50;53.97;;;19.20;70.00;;;;;;4943903;28;90265;-48
2022/11/02 11:33:55;;;;;;;85.78;53.47;;;19.20;69.90;;;;;;4947760;28;90904;-49
2022/11/02 11:36:34;;;;;;;84.13;53.80;;;19.20;69.80;;;;;;4942912;28;90438;-46
2022/11/02 11:39:06;;;;;;;86.22;54.53;;;19.20;69.80;;;;;;4944192;28;90834;-47
2022/11/02 11:41:33;;;;;;;86.70;54.28;;;19.20;69.60;;;;;;4942731;28;90010;-49
2022/11/02 11:44:00;;;;;;;86.00;54.00;;;19.20;69.60;;;;;;4937158;28;90407;-50
2022/11/02 11:46:43;;;;;;;90.53;54.30;;;19.20;69.60;;;;;;4942916;28;92167;-47
2022/11/02 11:49:23;;;;;;;83.75;54.17;;;19.20;69.60;;;;;;4940101;28;91663;-51
2022/11/02 11:51:52;;;;;;;85.38;53.63;;;19.10;69.60;;;;;;4944444;28;91175;-48
2022/11/02 11:54:23;;;;;;;85.97;54.08;;;19.10;69.50;;;;;;4937488;28;91199;-50
2022/11/02 11:56:51;;;;;;;80.38;53.35;;;19.10;69.30;;;;;;4946948;28;90099;-49
2022/11/02 11:59:24;;;;;;;82.18;53.38;;;19.10;69.30;;;;;;4939258;28;90917;-47
2022/11/02 12:01:54;;;;;;;80.30;53.38;;;19.10;69.10;;;;;;4950334;28;93037;-49
2022/11/02 12:04:34;;;;;;;83.10;53.30;;;19.10;69.20;;;;;;4932941;28;91079;-48
2022/11/02 12:07:33;;;;;;;87.65;53.90;;;19.10;69.00;;;;;;4932834;28;92265;-50
2022/11/02 12:10:18;;;;;;;83.38;53.70;;;19.10;69.00;;;;;;4938128;28;91659;-48
2022/11/02 12:12:52;;;;;;;90.82;53.75;;;19.10;69.00;;;;;;4945609;28;90407;-46
2022/11/02 12:15:49;;;;;;;80.80;53.53;;;19.10;69.10;;;;;;4937971;28;91510;-51
2022/11/02 12:18:41;;;;;;;82.80;53.33;;;19.10;69.10;;;;;;4935879;28;90102;-48
2022/11/02 12:21:40;;;;;;;81.22;53.47;;;19.10;69.20;;;;;;4939029;28;91462;-51
2022/11/02 12:24:37;;;;;;;84.90;53.40;;;19.00;69.10;;;;;;4931442;28;92280;-51
2022/11/02 12:27:08;;;;;;;81.15;53.53;;;19.00;69.00;;;;;;4934205;28;92117;-46
2022/11/02 12:29:34;;;;;;;;;;;19.10;69.30;;;;;;4937676;28;90652;-48
2022/11/02 12:32:18;;;;;;;79.80;53.47;;;19.10;69.40;;;;;;4938927;28;94747;-48
2022/11/02 12:35:21;;;;;;;81.85;52.95;;;19.10;69.60;;;;;;4939382;28;90390;-47
2022/11/02 12:38:20;;;;;;;80.32;53.17;;;19.00;69.80;;;;;;4921861;28;91150;-48
2022/11/02 12:40:56;;;;;;;82.22;53.00;;;19.00;70.00;;;;;;4936921;28;90734;-49
2022/11/02 12:43:44;;;;;;;82.47;53.33;;;19.00;70.10;;;;;;4932661;28;98926;-46
2022/11/02 12:46:12;;;;;;;78.00;53.10;;;19.00;70.20;;;;;;4930345;28;90949;-46
2022/11/02 12:48:52;;;;;;;82.35;52.92;;;19.00;70.30;;;;;;4934760;28;90211;-46
2022/11/02 12:51:23;;;;;;;81.60;53.28;;;19.10;70.40;;;;;;4939422;28;92382;-46
2022/11/02 12:54:03;;;;;;;79.15;53.42;;;19.10;70.50;;;;;;4931041;28;92313;-49
2022/11/02 12:56:43;;;;;;;78.78;53.40;;;19.10;70.70;;;;;;4933249;28;91821;-48
2022/11/02 12:59:32;;;;;;;79.45;53.40;;;19.10;70.70;;;;;;4925845;28;90038;-48